Time;durP1;ratioP1;P1;durP2;ratioP2;P2;SDS_P1;SDS_P2;PMS_P1;PMS_P2;Temp;Humidity;BMP_temperature;BMP_pressure;BME280_temperature;BME280_humidity;BME280_pressure;Samples;Min_cycle;Max_cycle;Signal;HPM_P1;HPM_P2
2023/10/17 00:00:57;;;;;;;6.45;5.95;;;;;;;5.95;100.00;95938.72;6310182;22;20080;-76
2023/10/17 00:03:24;;;;;;;6.45;5.68;;;;;;;5.93;100.00;95930.16;6310527;22;20011;-76
2023/10/17 00:05:51;;;;;;;6.18;5.68;;;;;;;5.88;100.00;95935.69;6282153;22;20062;-76
2023/10/17 00:08:17;;;;;;;5.80;5.20;;;;;;;5.83;100.00;95939.56;6310406;22;20006;-76
2023/10/17 00:10:45;;;;;;;6.07;5.45;;;;;;;5.83;100.00;95931.72;6310022;22;20014;-76
2023/10/17 00:15:55;;;;;;;8.35;5.15;;;;;;;5.82;100.00;95928.31;6309935;22;20112;-76
2023/10/17 00:18:25;;;;;;;6.03;5.10;;;;;;;5.86;100.00;95923.69;6309644;22;20011;-76
2023/10/17 00:20:53;;;;;;;5.38;4.97;;;;;;;5.88;100.00;95924.44;6309279;22;20023;-76
2023/10/17 00:23:22;;;;;;;5.93;5.15;;;;;;;5.82;100.00;95925.69;6309395;22;20006;-76
2023/10/17 00:25:51;;;;;;;5.38;4.90;;;;;;;5.81;100.00;95921.41;6309460;22;19995;-76
2023/10/17 00:28:20;;;;;;;5.85;5.30;;;;;;;5.82;100.00;95920.47;6309894;22;20006;-76
2023/10/17 00:30:48;;;;;;;5.20;4.80;;;;;;;5.83;100.00;95923.88;6309346;22;20150;-76
2023/10/17 00:33:20;;;;;;;5.47;5.05;;;;;;;5.81;100.00;95925.78;6308390;22;20014;-76
2023/10/17 00:35:47;;;;;;;4.97;4.57;;;;;;;5.79;100.00;95936.34;6309741;22;19999;-76
2023/10/17 00:38:15;;;;;;;5.15;4.75;;;;;;;5.78;100.00;95934.69;6309991;22;20063;-76
2023/10/17 00:40:47;;;;;;;5.78;5.30;;;;;;;5.78;100.00;95928.59;6309775;22;19995;-76
2023/10/17 00:43:13;;;;;;;6.80;5.28;;;;;;;5.76;100.00;95933.09;6309934;22;19998;-77
2023/10/17 00:45:39;;;;;;;5.90;5.20;;;;;;;5.73;100.00;95931.53;6309898;22;20027;-76
2023/10/17 00:48:17;;;;;;;7.63;4.78;;;;;;;5.70;100.00;95927.38;6282988;22;20082;-76
2023/10/17 00:50:43;;;;;;;5.65;5.20;;;;;;;5.69;100.00;95922.25;6307452;22;19999;-76
2023/10/17 00:53:11;;;;;;;5.80;5.20;;;;;;;5.71;100.00;95930.81;6309979;22;20432;-76
2023/10/17 00:55:37;;;;;;;5.13;4.60;;;;;;;5.69;100.00;95923.09;6282621;22;19999;-76
2023/10/17 00:58:06;;;;;;;6.80;4.78;;;;;;;5.70;100.00;95919.53;6310557;22;20430;-76
2023/10/17 01:00:47;;;;;;;4.93;4.53;;;;;;;5.67;100.00;95927.59;6309103;22;19999;-76
2023/10/17 01:03:13;;;;;;;5.13;4.70;;;;;;;5.63;100.00;95918.28;6307922;22;20425;-76
2023/10/17 01:08:58;;;;;;;5.13;4.72;;;;;;;5.59;100.00;95903.75;6274575;22;19999;-76
2023/10/17 01:11:30;;;;;;;5.38;4.97;;;;;;;5.59;100.00;95911.59;6276433;22;20457;-76
2023/10/17 01:14:00;;;;;;;5.35;4.85;;;;;;;5.61;100.00;95893.22;6293652;22;20074;-76
2023/10/17 01:16:26;;;;;;;5.55;4.85;;;;;;;5.63;100.00;95893.94;6309964;22;20003;-76
2023/10/17 01:18:53;;;;;;;5.65;5.10;;;;;;;5.62;100.00;95893.09;6310080;22;20428;-76
2023/10/17 01:21:19;;;;;;;4.97;4.57;;;;;;;5.60;100.00;95884.53;6306295;22;20277;-76
2023/10/17 01:23:46;;;;;;;6.40;5.32;;;;;;;5.58;100.00;95889.88;6282083;22;20132;-76
2023/10/17 01:26:23;;;;;;;5.75;5.25;;;;;;;5.57;100.00;95885.59;6307949;22;20029;-76
2023/10/17 01:28:50;;;;;;;5.50;5.00;;;;;;;5.54;100.00;95883.19;6310135;22;20003;-76
2023/10/17 01:31:22;;;;;;;5.70;5.20;;;;;;;5.53;100.00;95885.91;6309516;22;20393;-76
2023/10/17 01:33:49;;;;;;;5.25;4.82;;;;;;;5.46;100.00;95880.25;6310388;22;20003;-76
2023/10/17 01:36:16;;;;;;;5.38;4.85;;;;;;;5.43;100.00;95886.56;6283293;22;19999;-76
2023/10/17 01:38:42;;;;;;;5.28;4.88;;;;;;;5.43;100.00;95878.72;6309245;22;20285;-76
2023/10/17 01:41:10;;;;;;;5.05;4.65;;;;;;;5.48;100.00;95874.94;6309765;22;20075;-76
2023/10/17 01:43:40;;;;;;;7.88;5.45;;;;;;;5.49;100.00;95877.44;6309265;22;19991;-76
2023/10/17 01:46:09;;;;;;;5.82;5.32;;;;;;;5.52;100.00;95868.56;6309538;22;20010;-76
2023/10/17 01:48:35;;;;;;;5.28;4.93;;;;;;;5.55;100.00;95863.13;6309655;22;20103;-76
2023/10/17 01:51:07;;;;;;;5.38;4.88;;;;;;;5.55;100.00;95863.13;6308862;22;20321;-76
2023/10/17 01:53:34;;;;;;;6.22;4.68;;;;;;;5.55;100.00;95861.34;6307576;22;20003;-76
2023/10/17 01:56:06;;;;;;;5.05;4.65;;;;;;;5.53;100.00;95865.84;6283095;22;20010;-76
2023/10/17 01:58:36;;;;;;;5.85;5.35;;;;;;;5.56;100.00;95864.78;6309386;22;19999;-76
2023/10/17 02:01:03;;;;;;;7.05;5.00;;;;;;;5.57;100.00;95866.47;6309397;22;20412;-76
2023/10/17 02:03:30;;;;;;;5.72;5.22;;;;;;;5.54;100.00;95871.91;6309203;22;20424;-76
2023/10/17 02:05:55;;;;;;;4.75;4.45;;;;;;;5.54;100.00;95866.69;6309569;22;20039;-76
2023/10/17 02:08:22;;;;;;;5.47;5.07;;;;;;;5.52;100.00;95879.00;6309677;22;20089;-76
2023/10/17 02:10:48;;;;;;;5.00;4.63;;;;;;;5.51;100.00;95882.56;6309399;22;19999;-76
2023/10/17 02:13:13;;;;;;;5.03;4.40;;;;;;;5.47;100.00;95879.31;6309935;22;20017;-76
2023/10/17 02:15:39;;;;;;;5.70;5.20;;;;;;;5.43;100.00;95878.72;6310227;22;20294;-77
2023/10/17 02:18:12;;;;;;;7.32;4.95;;;;;;;5.42;100.00;95879.66;6307256;22;20505;-76
2023/10/17 02:20:41;;;;;;;5.15;4.75;;;;;;;5.40;100.00;95873.69;6308473;22;19994;-77
2023/10/17 02:23:13;;;;;;;5.68;5.18;;;;;;;5.33;100.00;95875.03;6309517;22;19995;-76
2023/10/17 02:25:41;;;;;;;5.82;5.28;;;;;;;5.35;100.00;95872.34;6309477;22;20030;-76
2023/10/17 02:28:07;;;;;;;5.55;5.05;;;;;;;5.37;100.00;95875.69;6281501;22;20397;-76
2023/10/17 02:30:32;;;;;;;5.60;5.20;;;;;;;5.37;100.00;95871.28;6283176;22;20003;-76
2023/10/17 02:33:00;;;;;;;5.25;4.40;;;;;;;5.35;100.00;95865.34;6309418;22;20003;-76
2023/10/17 02:35:36;;;;;;;5.35;4.85;;;;;;;5.35;100.00;95860.09;6308661;22;20011;-76
2023/10/17 02:38:04;;;;;;;4.38;4.05;;;;;;;5.38;100.00;95861.69;6308594;22;20010;-76
2023/10/17 02:40:34;;;;;;;5.40;4.90;;;;;;;5.37;100.00;95860.84;6309332;22;20003;-76
2023/10/17 02:43:02;;;;;;;5.43;5.07;;;;;;;5.32;100.00;95862.94;6282013;22;20018;-76
2023/10/17 02:45:28;;;;;;;5.20;4.80;;;;;;;5.30;100.00;95864.81;6309981;22;20018;-76
2023/10/17 02:47:54;;;;;;;5.60;5.20;;;;;;;5.31;100.00;95861.28;6308306;22;19995;-76
2023/10/17 02:52:59;;;;;;;5.15;4.75;;;;;;;5.38;100.00;95869.53;6309539;22;20299;-76
2023/10/17 02:55:25;;;;;;;5.90;5.40;;;;;;;5.37;100.00;95865.25;6311553;22;20003;-76
2023/10/17 02:57:54;;;;;;;5.70;5.25;;;;;;;5.35;100.00;95864.50;6311281;22;20054;-76
2023/10/17 03:00:25;;;;;;;7.00;4.93;;;;;;;5.32;100.00;95862.13;6311128;22;20006;-76
2023/10/17 03:02:58;;;;;;;4.97;4.65;;;;;;;5.28;100.00;95864.09;6310042;22;19995;-76
2023/10/17 03:05:25;;;;;;;5.53;5.13;;;;;;;5.25;100.00;95859.09;6311095;22;19999;-76
2023/10/17 03:07:51;;;;;;;5.80;5.40;;;;;;;5.22;100.00;95864.53;6310689;22;20014;-76
2023/10/17 03:10:57;;;;;;;6.80;6.20;;;;;;;5.18;100.00;95861.28;6311178;22;20426;-76
2023/10/17 03:13:59;;;;;;;5.63;5.10;;;;;;;5.15;100.00;95862.31;6308730;22;20010;-76
2023/10/17 03:16:14;;;;;;;6.60;4.55;;;;;;;5.15;100.00;95848.44;6299242;22;20413;-75
2023/10/17 03:18:40;;;;;;;5.45;5.07;;;;;;;5.18;100.00;95849.97;6311448;22;20026;-76
2023/10/17 03:21:08;;;;;;;5.97;5.32;;;;;;;5.20;100.00;95853.34;6309698;22;20003;-76
2023/10/17 03:23:34;;;;;;;5.57;5.07;;;;;;;5.19;100.00;95852.50;6310857;22;20013;-76
2023/10/17 03:26:03;;;;;;;5.28;4.88;;;;;;;5.18;100.00;95853.44;6310344;22;20420;-77
2023/10/17 03:28:29;;;;;;;7.53;5.45;;;;;;;5.13;100.00;95856.34;6311525;22;20344;-77
2023/10/17 03:30:54;;;;;;;5.00;4.50;;;;;;;5.12;100.00;95846.03;6310422;22;20002;-77
2023/10/17 03:33:32;;;;;;;5.53;5.13;;;;;;;5.13;100.00;95851.13;6311225;22;20007;-76
2023/10/17 03:38:31;;;;;;;5.72;5.18;;;;;;;5.13;100.00;95845.91;6284833;22;20301;-76
2023/10/17 03:41:04;;;;;;;5.25;4.85;;;;;;;5.12;100.00;95848.66;6309650;22;20443;-76
2023/10/17 03:43:37;;;;;;;5.55;5.05;;;;;;;5.16;100.00;95850.09;6309551;22;19999;-76
2023/10/17 03:46:05;;;;;;;5.47;5.07;;;;;;;5.19;100.00;95841.22;6311084;22;20045;-76
2023/10/17 03:48:36;;;;;;;6.43;4.90;;;;;;;5.15;100.00;95843.22;6310810;22;20033;-76
2023/10/17 03:53:32;;;;;;;5.25;4.90;;;;;;;5.14;100.00;95844.16;6310749;22;20465;-76
2023/10/17 03:56:01;;;;;;;5.53;4.97;;;;;;;5.13;100.00;95837.28;6310398;22;20006;-76
2023/10/17 04:00:57;;;;;;;5.43;5.03;;;;;;;5.06;100.00;95833.38;6309377;22;20010;-76
2023/10/17 04:03:26;;;;;;;5.90;5.28;;;;;;;5.10;100.00;95834.88;6310009;22;20039;-76
2023/10/17 04:06:03;;;;;;;5.28;4.80;;;;;;;5.11;100.00;95839.16;6310882;22;20011;-76
2023/10/17 04:08:37;;;;;;;5.93;5.28;;;;;;;5.14;100.00;95833.72;6310546;22;20507;-76
2023/10/17 04:13:51;;;;;;;12.25;9.50;;;;;;;5.16;100.00;95832.66;6310443;22;20472;-76
2023/10/17 04:16:22;;;;;;;14.50;12.57;;;;;;;5.16;100.00;95830.03;6309238;22;20007;-76
2023/10/17 04:19:00;;;;;;;12.60;11.48;;;;;;;5.15;100.00;95828.38;6308944;22;20014;-77
2023/10/17 04:21:32;;;;;;;14.55;12.32;;;;;;;5.12;100.00;95827.78;6282598;22;20003;-76
2023/10/17 04:24:05;;;;;;;19.33;14.43;;;;;;;5.09;100.00;95826.19;6310817;22;20002;-76
2023/10/17 04:26:34;;;;;;;18.30;16.40;;;;;;;5.05;100.00;95814.31;6310635;22;20019;-76
2023/10/17 04:29:10;;;;;;;15.98;12.18;;;;;;;5.06;100.00;95821.19;6310598;22;20192;-76
2023/10/17 04:31:36;;;;;;;10.70;9.65;;;;;;;5.08;100.00;95815.84;6309628;22;19999;-76
2023/10/17 04:34:09;;;;;;;15.18;13.63;;;;;;;5.05;100.00;95811.69;6309288;22;20092;-76
2023/10/17 04:36:38;;;;;;;12.82;11.63;;;;;;;5.04;100.00;95810.03;6281454;22;20037;-76
2023/10/17 04:44:32;;;;;;;7.43;6.45;;;;;;;5.05;100.00;95811.69;6283927;22;20038;-76
2023/10/17 04:49:32;;;;;;;9.07;7.72;;;;;;;5.06;100.00;95794.25;6310194;22;20459;-76
2023/10/17 04:54:31;;;;;;;8.10;7.35;;;;;;;5.07;100.00;95786.31;6310610;22;20011;-75
2023/10/17 04:56:59;;;;;;;8.15;7.35;;;;;;;5.10;100.00;95801.75;6309862;22;20007;-76
2023/10/17 04:59:43;;;;;;;8.68;7.88;;;;;;;5.07;100.00;95791.53;6310764;22;20014;-76
2023/10/17 05:02:36;;;;;;;5.22;4.82;;;;;;;5.05;100.00;95796.03;6310526;22;20019;-76
2023/10/17 05:07:31;;;;;;;6.97;6.32;;;;;;;5.05;100.00;95793.41;6310449;22;20003;-76
2023/10/17 06:18:32;;;;;;;15.77;14.05;;;;;;;5.37;100.00;95769.44;6308583;22;20091;-76
2023/10/17 06:32:03;;;;;;;10.25;9.27;;;;;;;5.55;100.00;95769.94;6272306;22;20033;-76
2023/10/17 06:34:31;;;;;;;21.02;18.90;;;;;;;5.55;100.00;95779.56;6308960;22;20010;-76
2023/10/17 06:37:07;;;;;;;25.70;23.40;;;;;;;5.58;100.00;95774.09;6307582;22;20010;-76
2023/10/17 06:39:36;;;;;;;28.92;26.23;;;;;;;5.63;100.00;95776.41;6308776;22;20006;-76
2023/10/17 06:42:14;;;;;;;25.17;22.92;;;;;;;5.67;100.00;95770.00;6309136;22;20074;-76
2023/10/17 06:44:54;;;;;;;26.00;23.38;;;;;;;5.69;100.00;95765.50;6280235;22;20328;-76
2023/10/17 06:47:30;;;;;;;20.95;18.98;;;;;;;5.70;100.00;95762.78;6284397;22;20000;-76
2023/10/17 06:55:42;;;;;;;14.45;13.00;;;;;;;5.79;100.00;95768.28;6308289;22;19999;-76
2023/10/17 06:58:10;;;;;;;13.68;12.50;;;;;;;5.84;100.00;95768.78;6307620;22;20128;-76
2023/10/17 07:00:49;;;;;;;13.18;12.02;;;;;;;5.87;100.00;95761.56;6280859;22;20014;-76
2023/10/17 07:03:15;;;;;;;15.23;13.82;;;;;;;5.92;100.00;95769.09;6308476;22;20441;-76
2023/10/17 07:05:49;;;;;;;14.95;13.68;;;;;;;5.95;100.00;95757.56;6280836;22;20082;-76
2023/10/17 07:08:16;;;;;;;18.52;16.77;;;;;;;6.01;100.00;95754.53;6282323;22;19995;-76
2023/10/17 07:10:59;;;;;;;16.77;15.13;;;;;;;6.04;100.00;95748.25;6308185;22;20041;-75
2023/10/17 07:14:21;;;;;;;15.52;14.07;;;;;;;6.14;100.00;95757.09;6280446;22;20004;-75
2023/10/17 07:19:46;;;;;;;12.57;11.50;;;;;;;6.28;100.00;95745.59;6307630;22;20055;-76
2023/10/17 07:24:25;;;;;;;11.98;11.02;;;;;;;6.38;100.00;95753.59;6307808;22;19999;-76
2023/10/17 07:26:54;;;;;;;10.93;9.82;;;;;;;6.41;100.00;95761.22;6308033;22;20003;-78
2023/10/17 07:29:23;;;;;;;13.45;10.30;;;;;;;6.44;100.00;95759.22;6308558;22;20184;-75
2023/10/17 07:31:52;;;;;;;10.13;9.07;;;;;;;6.46;100.00;95764.31;6308339;22;20119;-77
2023/10/17 07:34:21;;;;;;;9.70;8.85;;;;;;;6.49;100.00;95758.84;6308470;22;20011;-76
2023/10/17 07:36:50;;;;;;;9.40;8.32;;;;;;;6.54;100.00;95771.59;6306849;22;20011;-78
2023/10/17 07:39:23;;;;;;;9.15;8.38;;;;;;;6.58;100.00;95765.19;6307758;22;20346;-78
2023/10/17 07:41:54;;;;;;;8.85;7.72;;;;;;;6.62;100.00;95768.41;6309885;22;20015;-78
2023/10/17 07:44:21;;;;;;;8.98;7.93;;;;;;;6.64;100.00;95758.66;6309032;22;19995;-77
2023/10/17 07:46:51;;;;;;;8.05;7.35;;;;;;;6.66;100.00;95760.22;6309266;22;20430;-77
2023/10/17 07:49:26;;;;;;;7.68;7.03;;;;;;;6.69;100.00;95761.75;6310221;22;20066;-78
2023/10/17 07:51:52;;;;;;;9.10;7.38;;;;;;;6.72;100.00;95764.13;6308812;22;20086;-77
2023/10/17 07:54:18;;;;;;;9.85;7.03;;;;;;;6.81;100.00;95757.38;6307980;22;20424;-77
2023/10/17 07:56:50;;;;;;;7.65;6.85;;;;;;;6.93;100.00;95759.06;6308418;22;20413;-78
2023/10/17 07:59:30;;;;;;;10.80;7.50;;;;;;;6.98;100.00;95754.31;6309319;22;19995;-77
2023/10/17 08:01:58;;;;;;;7.95;7.25;;;;;;;7.07;100.00;95758.00;6309801;22;20015;-78
2023/10/17 08:04:29;;;;;;;9.57;7.63;;;;;;;7.15;100.00;95750.38;6308763;22;20022;-77
2023/10/17 08:06:56;;;;;;;8.32;7.47;;;;;;;7.26;100.00;95746.09;6307666;22;20014;-77
2023/10/17 08:11:52;;;;;;;9.85;7.35;;;;;;;7.37;100.00;95748.69;6309661;22;20003;-77
2023/10/17 08:17:08;;;;;;;7.88;7.18;;;;;;;7.55;100.00;95756.06;6311661;22;20088;-76
2023/10/17 08:22:18;;;;;;;7.10;6.38;;;;;;;7.76;100.00;95753.53;6314373;22;20049;-78
2023/10/17 08:24:51;;;;;;;6.15;5.57;;;;;;;7.85;100.00;95749.34;6311391;22;20026;-78
2023/10/17 08:29:49;;;;;;;7.57;5.25;;;;;;;8.04;100.00;95746.06;6309424;22;20080;-77
2023/10/17 08:35:03;;;;;;;7.70;5.75;;;;;;;8.23;100.00;95761.09;6312848;22;20011;-77
2023/10/17 08:37:30;;;;;;;7.88;5.50;;;;;;;8.31;100.00;95763.94;6313841;22;20022;-77
2023/10/17 08:39:57;;;;;;;6.30;5.38;;;;;;;8.39;100.00;95768.53;6286309;22;19999;-78
2023/10/17 08:44:54;;;;;;;6.60;5.00;;;;;;;8.50;100.00;95782.59;6283875;22;19995;-77
2023/10/17 08:47:24;;;;;;;7.63;5.38;;;;;;;8.49;100.00;95778.28;6308365;22;20317;-77
2023/10/17 08:49:50;;;;;;;5.45;5.00;;;;;;;8.58;100.00;95783.63;6282252;22;20002;-78
2023/10/17 08:52:23;;;;;;;5.40;4.90;;;;;;;8.72;100.00;95782.50;6308668;22;20003;-80
2023/10/17 08:54:50;;;;;;;5.55;5.05;;;;;;;8.74;100.00;95790.25;6309208;22;20003;-78
2023/10/17 08:57:16;;;;;;;6.82;5.00;;;;;;;8.87;100.00;95796.13;6308552;22;20402;-78
2023/10/17 09:05:00;;;;;;;5.47;5.07;;;;;;;9.28;100.00;95806.72;6308556;22;20019;-79
2023/10/17 09:07:32;;;;;;;5.57;4.90;;;;;;;9.42;100.00;95810.78;6309145;22;20060;-78
2023/10/17 09:10:16;;;;;;;5.30;4.80;;;;;;;9.52;100.00;95820.50;6308389;22;20023;-78
2023/10/17 09:15:27;;;;;;;7.22;4.90;;;;;;;9.70;100.00;95828.59;6308863;22;20009;-78
2023/10/17 09:18:07;;;;;;;6.25;4.82;;;;;;;9.82;100.00;95835.41;6308816;22;20393;-78
2023/10/17 09:20:36;;;;;;;5.63;5.10;;;;;;;9.94;100.00;95841.41;6281838;22;20077;-78
2023/10/17 09:23:02;;;;;;;4.93;4.53;;;;;;;10.09;100.00;95847.13;6280615;22;19995;-78
2023/10/17 09:25:30;;;;;;;4.38;3.97;;;;;;;10.16;100.00;95852.66;6308250;22;20526;-78
2023/10/17 09:27:57;;;;;;;3.78;3.47;;;;;;;10.25;100.00;95867.63;6308563;22;19999;-78
2023/10/17 09:30:26;;;;;;;6.57;4.00;;;;;;;10.40;100.00;95864.63;6281901;22;19995;-78
2023/10/17 09:32:52;;;;;;;4.50;4.20;;;;;;;10.57;100.00;95857.88;6307751;22;20026;-78
2023/10/17 09:35:18;;;;;;;6.30;4.85;;;;;;;10.72;100.00;95856.50;6308931;22;20393;-78
2023/10/17 09:37:52;;;;;;;6.88;4.05;;;;;;;10.79;100.00;95842.75;6308697;22;20005;-78
2023/10/17 09:40:33;;;;;;;3.83;3.40;;;;;;;10.91;100.00;95849.56;6308502;22;20009;-78
2023/10/17 09:43:00;;;;;;;4.45;4.05;;;;;;;11.07;100.00;95837.63;6308733;22;20074;-78
2023/10/17 09:45:31;;;;;;;4.47;4.05;;;;;;;11.15;100.00;95829.84;6308340;22;19998;-79
2023/10/17 09:48:01;;;;;;;6.32;3.88;;;;;;;11.31;100.00;95839.78;6281994;22;19995;-78
2023/10/17 09:50:29;;;;;;;4.38;3.97;;;;;;;11.38;100.00;95840.03;6282225;22;19995;-78
2023/10/17 09:52:57;;;;;;;5.65;4.00;;;;;;;11.41;100.00;95830.06;6308128;22;20339;-78
2023/10/17 09:55:24;;;;;;;5.20;4.00;;;;;;;11.42;100.00;95831.72;6308329;22;20011;-78
2023/10/17 09:58:03;;;;;;;4.60;3.67;;;;;;;11.40;100.00;95835.44;6307531;22;20003;-78
2023/10/17 10:00:40;;;;;;;6.85;4.65;;;;;;;11.55;100.00;95846.34;6281216;22;19999;-79
2023/10/17 10:03:08;;;;;;;5.65;4.05;;;;;;;11.51;100.00;95850.25;6281126;22;20138;-78
2023/10/17 10:05:34;;;;;;;5.43;4.00;;;;;;;11.44;100.00;95845.56;6308322;22;20019;-78
2023/10/17 10:08:03;;;;;;;4.50;3.72;;;;;;;11.51;100.00;95842.34;6308510;22;20019;-79
2023/10/17 10:10:51;;;;;;;3.78;3.47;;;;;;;11.68;100.00;95835.47;6309181;22;20019;-78
2023/10/17 10:13:17;;;;;;;4.68;3.47;;;;;;;11.79;100.00;95837.09;6308735;22;20043;-79
2023/10/17 10:15:52;;;;;;;4.75;3.55;;;;;;;11.88;100.00;95829.16;6308159;22;20006;-79
2023/10/17 10:18:40;;;;;;;5.95;3.45;;;;;;;11.99;100.00;95817.56;6307810;22;20488;-78
2023/10/17 10:21:07;;;;;;;3.83;3.47;;;;;;;12.18;100.00;95815.81;6308873;22;19999;-78
2023/10/17 10:23:37;;;;;;;4.68;3.58;;;;;;;12.35;100.00;95811.53;6308739;22;20056;-78
2023/10/17 10:26:11;;;;;;;4.40;4.00;;;;;;;12.37;100.00;95801.66;6308238;22;20173;-78
2023/10/17 10:28:51;;;;;;;4.68;3.83;;;;;;;12.37;100.00;95796.38;6307076;22;20021;-81
2023/10/17 10:31:23;;;;;;;3.65;3.35;;;;;;;12.47;100.00;95783.09;6309015;22;20045;-77
2023/10/17 10:33:51;;;;;;;8.20;4.07;;;;;;;12.48;100.00;95779.47;6280809;22;20015;-78
2023/10/17 10:36:18;;;;;;;4.07;3.42;;;;;;;12.51;100.00;95779.19;6281343;22;20060;-79
2023/10/17 10:38:44;;;;;;;4.22;3.72;;;;;;;12.53;100.00;95769.31;6308999;22;20022;-78
2023/10/17 10:41:13;;;;;;;5.22;3.55;;;;;;;12.59;100.00;95762.56;6308395;22;20010;-78
2023/10/17 10:43:40;;;;;;;3.60;3.30;;;;;;;12.76;100.00;95750.31;6308741;22;20026;-78
2023/10/17 10:46:05;;;;;;;3.40;3.20;;;;;;;12.87;100.00;95738.69;6308785;22;20006;-78
2023/10/17 10:48:32;;;;;;;4.65;3.60;;;;;;;12.99;100.00;95739.25;6281317;22;20003;-78
2023/10/17 10:50:59;;;;;;;5.85;3.83;;;;;;;13.20;100.00;95725.63;6308778;22;20006;-78
2023/10/17 10:53:39;;;;;;;3.90;3.28;;;;;;;13.20;100.00;95725.63;6308741;22;20003;-78
2023/10/17 10:56:04;;;;;;;4.38;3.58;;;;;;;13.25;100.00;95723.34;6308385;22;20010;-78
2023/10/17 10:58:35;;;;;;;4.60;4.20;;;;;;;13.31;100.00;95729.81;6308252;22;19999;-78
2023/10/17 11:01:02;;;;;;;6.07;3.60;;;;;;;13.25;100.00;95728.63;6307937;22;20017;-79
2023/10/17 11:03:31;;;;;;;4.72;4.00;;;;;;;13.21;100.00;95722.00;6282141;22;20026;-78
2023/10/17 11:06:04;;;;;;;4.65;3.80;;;;;;;13.28;100.00;95715.13;6308951;22;19999;-78
2023/10/17 11:08:37;;;;;;;5.25;3.80;;;;;;;13.45;100.00;95716.03;6309041;22;20030;-77
2023/10/17 11:11:04;;;;;;;5.05;3.10;;;;;;;13.56;100.00;95683.19;6308599;22;20039;-78
2023/10/17 11:13:37;;;;;;;4.97;3.38;;;;;;;13.68;100.00;95672.28;6281261;22;20003;-78
2023/10/17 11:16:06;;;;;;;3.50;3.20;;;;;;;13.82;100.00;95663.72;6309745;22;19999;-78
2023/10/17 11:18:38;;;;;;;4.45;3.65;;;;;;;13.98;100.00;95662.91;6283725;22;20006;-79
2023/10/17 11:21:05;;;;;;;3.60;3.25;;;;;;;14.10;100.00;95659.97;6310981;22;20073;-78
2023/10/17 11:23:33;;;;;;;3.80;3.05;;;;;;;14.19;100.00;95651.03;6283288;22;20420;-79
2023/10/17 11:25:59;;;;;;;5.60;3.03;;;;;;;14.17;100.00;95648.56;6310846;22;19999;-78
2023/10/17 11:28:27;;;;;;;3.58;3.30;;;;;;;14.30;100.00;95637.47;6310841;22;19996;-78
2023/10/17 11:30:53;;;;;;;5.65;3.80;;;;;;;14.22;100.00;95637.44;6310422;22;19999;-78
2023/10/17 11:33:28;;;;;;;3.85;3.50;;;;;;;14.24;100.00;95640.75;6309490;22;20254;-79
2023/10/17 11:35:54;;;;;;;;;;;;;;;14.16;100.00;95638.13;6286443;22;20002;-76
2023/10/17 11:38:35;;;;;;;4.53;3.00;;;;;;;14.13;100.00;95638.47;6310479;22;20482;-79
2023/10/17 11:41:05;;;;;;;3.70;3.03;;;;;;;14.18;100.00;95639.63;6311129;22;20061;-78
2023/10/17 11:43:42;;;;;;;3.80;3.10;;;;;;;14.33;100.00;95626.53;6312607;22;20059;-77
2023/10/17 11:46:12;;;;;;;3.72;3.38;;;;;;;14.39;100.00;95621.56;6310806;22;20003;-78
2023/10/17 11:48:44;;;;;;;3.55;3.22;;;;;;;14.36;100.00;95622.72;6283259;22;19999;-78
2023/10/17 11:51:15;;;;;;;4.13;3.75;;;;;;;14.40;100.00;95621.41;6310724;22;20019;-78
2023/10/17 11:54:04;;;;;;;4.97;3.22;;;;;;;14.39;100.00;95616.25;6310601;22;20008;-78
2023/10/17 11:56:31;;;;;;;3.38;3.03;;;;;;;14.38;100.00;95610.16;6310538;22;20011;-78
2023/10/17 11:58:57;;;;;;;3.92;3.63;;;;;;;14.39;100.00;95610.97;6281510;22;20045;-78
2023/10/17 12:01:23;;;;;;;4.43;4.03;;;;;;;14.42;100.00;95607.97;6309007;22;20003;-78
2023/10/17 12:03:52;;;;;;;4.65;4.25;;;;;;;14.57;100.00;95608.94;6310113;22;20303;-78
2023/10/17 12:06:17;;;;;;;5.05;4.65;;;;;;;14.45;100.00;95613.78;6309801;22;20077;-78
2023/10/17 12:08:45;;;;;;;8.27;7.47;;;;;;;14.38;100.00;95609.31;6309685;22;20456;-78
2023/10/17 12:11:11;;;;;;;6.68;5.70;;;;;;;14.42;100.00;95605.31;6309997;22;20023;-78
2023/10/17 12:13:37;;;;;;;12.00;9.95;;;;;;;14.60;100.00;95600.66;6309323;22;20038;-78
2023/10/17 12:16:08;;;;;;;11.02;8.57;;;;;;;14.92;100.00;95594.63;6310049;22;19999;-78
2023/10/17 12:18:35;;;;;;;12.57;9.95;;;;;;;15.12;100.00;95581.81;6308611;22;20011;-78
2023/10/17 12:21:01;;;;;;;6.65;5.28;;;;;;;15.37;100.00;95574.56;6310171;22;20400;-78
2023/10/17 12:23:30;;;;;;;4.38;3.97;;;;;;;15.73;100.00;95571.31;6309570;22;20022;-78
2023/10/17 12:25:58;;;;;;;8.52;3.40;;;;;;;15.95;100.00;95581.31;6282629;22;20070;-77
2023/10/17 12:28:24;;;;;;;3.30;3.00;;;;;;;16.06;100.00;95582.72;6309081;22;19999;-78
2023/10/17 12:30:49;;;;;;;5.25;3.17;;;;;;;16.11;100.00;95578.50;6257568;22;20031;-78
2023/10/17 12:33:18;;;;;;;3.35;3.05;;;;;;;15.98;100.00;95568.50;6309174;22;20037;-77
2023/10/17 12:35:46;;;;;;;4.00;3.20;;;;;;;15.78;100.00;95575.25;6309579;22;20383;-78
2023/10/17 12:38:14;;;;;;;3.85;2.97;;;;;;;15.74;100.00;95572.97;6309798;22;20025;-78
2023/10/17 12:40:42;;;;;;;5.30;3.10;;;;;;;15.73;100.00;95573.97;6309380;22;20091;-78
2023/10/17 12:43:11;;;;;;;3.63;3.33;;;;;;;15.69;100.00;95575.31;6310080;22;20019;-78
2023/10/17 12:45:37;;;;;;;4.25;3.20;;;;;;;15.72;100.00;95574.97;6310961;22;20003;-78
2023/10/17 12:48:05;;;;;;;4.97;3.45;;;;;;;15.73;100.00;95567.84;6309442;22;20473;-78
2023/10/17 12:50:33;;;;;;;3.03;2.83;;;;;;;15.91;100.00;95559.59;6310569;22;20013;-77
2023/10/17 12:52:58;;;;;;;3.40;3.10;;;;;;;15.96;100.00;95551.91;6308473;22;20376;-77
2023/10/17 12:55:24;;;;;;;6.97;3.35;;;;;;;15.98;100.00;95560.53;6281547;22;19998;-78
2023/10/17 12:57:51;;;;;;;3.53;3.22;;;;;;;16.14;100.00;95551.63;6308654;22;20003;-78
2023/10/17 13:00:17;;;;;;;4.93;3.13;;;;;;;16.21;100.00;95551.69;6309333;22;20082;-76
2023/10/17 13:02:42;;;;;;;3.60;3.10;;;;;;;16.18;100.00;95549.41;6309487;22;19996;-77
2023/10/17 13:05:09;;;;;;;3.92;3.15;;;;;;;16.26;100.00;95557.31;6276800;22;20029;-77
2023/10/17 13:07:38;;;;;;;4.00;3.28;;;;;;;16.36;100.00;95540.28;6278069;22;20414;-77
2023/10/17 13:10:06;;;;;;;5.55;2.97;;;;;;;16.37;100.00;95544.56;6277230;22;20065;-76
2023/10/17 13:12:31;;;;;;;4.05;3.00;;;;;;;16.30;100.00;95542.66;6278132;22;19999;-77
2023/10/17 13:14:57;;;;;;;5.30;3.53;;;;;;;16.17;100.00;95543.28;6277863;22;20018;-77
2023/10/17 13:17:24;;;;;;;4.13;3.20;;;;;;;16.00;100.00;95536.47;6276096;22;20064;-76
2023/10/17 13:19:51;;;;;;;3.78;3.20;;;;;;;16.08;100.00;95546.19;6277463;22;20035;-77
2023/10/17 13:22:17;;;;;;;3.88;3.35;;;;;;;16.06;100.00;95534.94;6277533;22;20075;-77
2023/10/17 13:24:45;;;;;;;4.43;3.40;;;;;;;16.14;100.00;95532.19;6278083;22;20098;-76
2023/10/17 13:27:11;;;;;;;3.90;3.35;;;;;;;16.14;100.00;95532.19;6276454;22;20003;-76
2023/10/17 13:29:36;;;;;;;3.58;3.28;;;;;;;15.99;100.00;95527.66;6276784;22;19995;-77
2023/10/17 13:32:07;;;;;;;4.00;3.60;;;;;;;15.90;100.00;95531.41;6276069;22;19995;-77
2023/10/17 13:34:34;;;;;;;7.22;3.35;;;;;;;15.86;100.00;95522.94;6276223;22;20471;-77
2023/10/17 13:37:01;;;;;;;4.57;3.10;;;;;;;15.96;100.00;95520.06;6275927;22;20404;-77
2023/10/17 13:39:26;;;;;;;4.63;3.10;;;;;;;15.98;100.00;95507.44;6277643;22;20000;-77
2023/10/17 13:41:51;;;;;;;3.50;2.95;;;;;;;16.11;100.00;95506.81;6278626;22;19995;-76
2023/10/17 13:44:17;;;;;;;5.13;2.97;;;;;;;16.24;100.00;95503.50;6278179;22;20458;-77
2023/10/17 13:46:42;;;;;;;3.17;2.97;;;;;;;16.64;100.00;95503.25;6277472;22;20091;-76
2023/10/17 13:49:11;;;;;;;3.88;3.15;;;;;;;17.00;100.00;95504.34;6276718;22;20007;-76
2023/10/17 13:51:38;;;;;;;4.32;3.42;;;;;;;17.18;100.00;95502.09;6277065;22;20004;-77
2023/10/17 13:54:05;;;;;;;5.15;2.90;;;;;;;17.28;100.00;95492.97;6276613;22;20004;-77
2023/10/17 13:56:33;;;;;;;4.20;3.22;;;;;;;17.19;100.00;95489.59;6275289;22;20066;-77
2023/10/17 13:58:59;;;;;;;4.38;2.90;;;;;;;17.34;100.00;95481.56;6277061;22;20438;-77
2023/10/17 14:01:27;;;;;;;3.65;3.20;;;;;;;17.64;100.00;95472.63;6275590;22;20060;-77
2023/10/17 14:03:56;;;;;;;4.15;3.15;;;;;;;17.82;100.00;95475.66;6291610;22;20019;-77
2023/10/17 14:06:22;;;;;;;3.90;2.72;;;;;;;17.61;100.00;95477.31;6308207;22;20026;-77